• Join FlightAware (Why Join?)
  • Login
  • US Flag 
10:04AM EDT


 

Airport Tracker/Info


-or-


 

Live Flight TrackerFlight Track Log ✈ XLF78 ✈ 05-May-2013 ✈ LFPG / CDG - MDPP / POP

Flight Track Log - Related Links

Times and Time Zones

All times are in EDT time to prevent confusion due to time zone crossing. See the XLF78 flight status page for this flight to view local times or setup timezone preferences in your user account.

Time Position Orientation Groundspeed Altitude Reporting Facility
EDT Latitude Longitude Course Direction KTS MPH feet Rate Location/Type
08:35AM 48.9960 2.5591 84° East 178 205 400  Level FlightAware ADS-B
08:36AM 48.9947 2.5411 264° West 171 197 1,000 2,160 Climbing FlightAware ADS-B
08:36AM 48.9926 2.5159 263° West 175 201 1,700 2,100 Climbing FlightAware ADS-B
08:36AM 48.9910 2.4965 263° West 173 199 2,300 1,860 Climbing FlightAware ADS-B
08:36AM 48.9893 2.4765 263° West 174 200 2,700 1,500 Climbing FlightAware ADS-B
08:37AM 48.9879 2.4587 263° West 176 203 3,100 1,260 Climbing FlightAware ADS-B
08:37AM 48.9866 2.4369 265° West 181 208 3,400 1,080 Climbing FlightAware ADS-B
08:37AM 48.9854 2.4171 265° West 186 214 3,700 960 Climbing FlightAware ADS-B
08:38AM 48.9842 2.3959 265° West 202 232 3,900 720 Climbing FlightAware ADS-B
08:38AM 48.9829 2.3699 266° West 231 266 4,100 900 Climbing FlightAware ADS-B
08:38AM 48.9815 2.3414 266° West 250 288 4,400 1,380 Climbing FlightAware ADS-B
08:38AM 48.9800 2.3123 266° West 260 299 4,900 2,220 Climbing FlightAware ADS-B
08:39AM 48.9785 2.2824 266° West 264 304 5,600 2,100 Climbing FlightAware ADS-B
08:39AM 48.9771 2.2542 266° West 271 312 6,000 1,740 Climbing FlightAware ADS-B
08:39AM 48.9757 2.2262 266° West 276 318 6,500 2,400 Climbing FlightAware ADS-B
08:39AM 48.9742 2.1953 266° West 277 319 7,200 2,400 Climbing FlightAware ADS-B
08:40AM 48.9727 2.1670 265° West 278 320 7,700 2,280 Climbing FlightAware ADS-B
08:40AM 48.9712 2.1370 266° West 278 320 8,400 2,280 Climbing FlightAware ADS-B
08:40AM 48.9696 2.1058 266° West 280 322 8,900 2,100 Climbing FlightAware ADS-B
08:40AM 48.9680 2.0749 265° West 284 327 9,500 1,800 Climbing FlightAware ADS-B
08:41AM 48.9648 2.0136 265° West 295 339 10,300 1,140 Climbing FlightAware ADS-B
08:41AM 48.9612 1.9442 266° West 325 374 10,700 840 Climbing FlightAware ADS-B
08:42AM 48.9573 1.8701 265° West 353 406 11,200 1,320 Climbing FlightAware ADS-B
08:42AM 48.9527 1.7926 265° West 363 418 12,100  Climbing FlightAware ADS-B
08:43AM 48.9505 1.7464 265° West 360 414 11,200 1,980 Descending FlightAware UK
08:43AM 48.9477 1.7141 265° West 367 422 13,100 6,660 Climbing FlightAware ADS-B
08:43AM 48.9471 1.7011 266° West 370 426 13,200 -2,520 Climbing FlightAware ADS-B
08:43AM 48.9454 1.6510 266° West 366 421 12,100 1,560 Descending FlightAware UK
08:44AM 48.9473 1.6206 266° West 379 436 14,000 1,980 Climbing FlightAware ADS-B
08:44AM 48.9474 1.5535 266° West 372 428 13,300 1,920 Descending FlightAware UK
08:44AM 48.9476 1.5395 266° West 381 438 15,000 1,500 Climbing FlightAware ADS-B
08:44AM 48.9476 1.4891 266° West 374 430 13,900 1,560 Descending FlightAware UK
08:45AM 48.9477 1.4353 266° West 392 451 16,000 1,320 Climbing FlightAware ADS-B
08:45AM 48.9478 1.3908 266° West 380 437 14,700 -1,680 Descending FlightAware UK
08:45AM 48.9484 1.3417 271° West 382 440 15,100 4,140 Climbing FlightAware UK
08:46AM 48.9475 1.2999 271° West 404 465 17,000 1,380 Climbing FlightAware ADS-B
08:46AM 48.9478 1.2548 271° West 388 447 15,800 1,500 Descending FlightAware UK
08:46AM 48.9468 1.2076 271° West 417 480 17,800 1,500 Climbing FlightAware ADS-B
08:47AM 48.9455 1.0953 271° West 398 458 17,200 1,620 Descending FlightAware UK
08:47AM 48.9451 1.0440 271° West 424 488 19,300 3,480 Climbing FlightAware ADS-B
08:47AM 48.9448 0.9552 270° West 430 495 20,000 -660 Climbing FlightAware ADS-B
08:48AM 48.9449 0.8986 270° West 404 465 18,800 1,200 Descending FlightAware UK
08:48AM 48.9441 0.8319 270° West 434 499 20,800 1,260 Climbing FlightAware ADS-B
08:48AM 48.9443 0.7697 270° West 410 472 19,700 1,260 Descending FlightAware UK
08:49AM 48.9431 0.7351 270° West 444 511 21,500 1,380 Climbing FlightAware ADS-B
08:49AM 48.9410 0.5806 270° West 416 479 21,100 1,380 Descending FlightAware UK
08:50AM 48.9399 0.5179 270° West 447 514 23,100 1,260 Climbing FlightAware ADS-B
08:50AM 48.9380 0.4482 270° West 422 486 22,000 1,140 Descending FlightAware UK
08:50AM 48.9344 0.4226 270° West 457 526 23,700 1,200 Climbing FlightAware ADS-B
08:51AM 48.9285 0.3536 270° West 428 493 22,600 -360 Descending FlightAware UK
08:51AM 48.9189 0.2389 263° West 428 493 23,400 1,080 Climbing FlightAware UK
08:52AM 48.9114 0.1418 263° West 436 502 23,800 2,700 Climbing FlightAware UK
08:52AM 48.9061 0.0708 263° West 470 541 25,800 960 Climbing FlightAware ADS-B
08:53AM 48.8996 -0.0149 263° West 440 506 24,600 -1,260 Descending FlightAware UK
08:53AM 48.8936 -0.0944 263° West 444 511 24,800 540 Climbing FlightAware UK
08:53AM 48.8890 -0.1544 263° West 446 513 25,000 840 Climbing FlightAware UK
08:54AM 48.8726 -0.3603 263° West 454 522 25,900 900 Climbing FlightAware UK
08:55AM 48.8633 -0.4638 262° West 456 525 26,400 1,020 Climbing FlightAware UK
08:56AM 48.8400 -0.7529 263° West 462 532 27,900 960 Climbing FlightAware UK
08:57AM 48.8243 -0.9378 263° West 464 534 28,700 780 Climbing FlightAware UK
08:58AM 48.8155 -1.0414 263° West 468 539 29,000 720 Climbing FlightAware UK
08:58AM 48.8031 -1.1879 263° West 472 543 29,600 900 Climbing FlightAware UK
08:59AM 48.7977 -1.2518 263° West 470 541 29,900 960 Climbing FlightAware UK
08:59AM 48.7900 -1.3359 262° West 472 543 30,300 1,140 Climbing FlightAware UK
08:59AM 48.7844 -1.3993 262° West 472 543 30,700 1,320 Climbing FlightAware UK
09:00AM 48.7788 -1.4618 262° West 470 541 31,100 1,260 Climbing FlightAware UK
09:01AM 48.7604 -1.6679 262° West 464 534 32,400 1,200 Climbing FlightAware UK
09:01AM 48.7512 -1.7701 262° West 460 529 32,900 840 Climbing FlightAware UK
09:01AM 48.7455 -1.8314 262° West 462 532 33,100 660 Climbing FlightAware UK
09:02AM 48.7398 -1.8928 262° West 464 534 33,300 660 Climbing FlightAware UK
09:02AM 48.7343 -1.9536 262° West 466 536 33,500 1,080 Climbing FlightAware UK
09:03AM 48.7245 -2.0960 264° West 462 532 34,400 900 Climbing FlightAware UK
09:03AM 48.7199 -2.1573 263° West 460 529 34,400  Level FlightAware UK
09:03AM 48.7152 -2.2182 263° West 462 532 34,400 120 Level FlightAware UK
09:04AM 48.7105 -2.2791 263° West 462 532 34,500 120 Climbing FlightAware UK
09:04AM 48.7020 -2.3805 263° West 460 529 34,500  Level FlightAware UK
09:04AM 48.6970 -2.4415 263° West 460 529 34,500  Level FlightAware UK
09:05AM 48.6889 -2.5418 263° West 460 529 34,500  Level FlightAware UK
09:05AM 48.6838 -2.6028 263° West 460 529 34,500  Level FlightAware UK
09:06AM 48.6739 -2.7229 263° West 462 532 34,500  Level FlightAware UK
09:06AM 48.6688 -2.7835 263° West 464 534 34,500  Level FlightAware UK
09:07AM 48.6602 -2.8836 263° West 464 534 34,500  Level FlightAware UK
09:07AM 48.6515 -2.9843 263° West 464 534 34,500  Level FlightAware UK
09:08AM 48.6359 -3.1636 263° West 462 532 34,500  Level FlightAware UK
09:08AM 48.6305 -3.2239 262° West 462 532 34,500  Level FlightAware UK
09:09AM 48.6253 -3.2829 262° West 462 532 34,500  Level FlightAware UK
09:09AM 48.6183 -3.3626 262° West 462 532 34,500  Level FlightAware UK
09:09AM 48.6128 -3.4223 262° West 462 532 34,500  Level FlightAware UK
09:10AM 48.6073 -3.4820 262° West 460 529 34,500  Level FlightAware UK
09:10AM 48.6019 -3.5416 262° West 460 529 34,500  Level FlightAware UK
09:11AM 48.5890 -3.6799 262° West 460 529 34,500  Level FlightAware UK
09:12AM 48.5687 -3.8980 262° West 460 529 34,500  Level FlightAware UK
09:12AM 48.5612 -3.9770 262° West 460 529 34,500  Level FlightAware UK
09:13AM 48.5500 -4.0948 262° West 460 529 34,500  Level FlightAware UK
09:14AM 48.5288 -4.3116 262° West 462 532 34,500  Level FlightAware UK
09:14AM 48.5210 -4.3907 261° West 462 532 34,500  Level FlightAware UK
09:15AM 48.5129 -4.4697 261° West 462 532 34,500  Level FlightAware UK
09:15AM 48.5069 -4.5291 261° West 462 532 34,500  Level FlightAware UK
09:15AM 48.5009 -4.5884 261° West 462 532 34,500  Level FlightAware UK
09:15AM 48.4949 -4.6476 261° West 462 532 34,500  Level FlightAware UK
09:16AM 48.4888 -4.7065 261° West 462 532 34,500  Level FlightAware UK
09:16AM 48.4811 -4.7844 262° West 462 532 34,500  Level FlightAware UK
09:16AM 48.4751 -4.8433 261° West 460 529 34,500  Level FlightAware UK
09:17AM 48.4691 -4.9020 261° West 462 532 34,500  Level FlightAware UK
09:17AM 48.4630 -4.9606 261° West 462 532 34,500  Level FlightAware UK
09:17AM 48.4548 -5.0384 261° West 460 529 34,500  Level FlightAware UK
09:18AM 48.4446 -5.1353 261° West 462 532 34,500  Level FlightAware UK
09:18AM 48.4385 -5.1934 261° West 460 529 34,500  Level FlightAware UK
09:19AM 48.4322 -5.2512 261° West 460 529 34,500  Level FlightAware UK
09:19AM 48.4261 -5.3092 261° West 458 527 34,500 240 Level FlightAware UK
09:19AM 48.4178 -5.3861 261° West 460 529 34,700 420 Climbing FlightAware UK
09:20AM 48.4115 -5.4438 261° West 460 529 34,800 300 Climbing FlightAware UK
09:20AM 48.4052 -5.5012 261° West 460 529 34,900 480 Climbing FlightAware UK
09:20AM 48.3990 -5.5584 261° West 458 527 35,100 480 Climbing FlightAware UK
09:20AM 48.3927 -5.6153 261° West 458 527 35,200 480 Climbing FlightAware UK
09:21AM 48.3864 -5.6722 261° West 458 527 35,400 480 Climbing FlightAware UK
09:21AM 48.3801 -5.7288 260° West 458 527 35,500 120 Climbing FlightAware UK
09:21AM 48.3737 -5.7855 260° West 460 529 35,500  Level FlightAware UK
09:22AM 48.3669 -5.8412 260° West 458 527 35,500  Level FlightAware UK
09:22AM 48.3603 -5.8978 260° West 460 529 35,500  Level FlightAware UK
09:22AM 48.3538 -5.9544 260° West 458 527 35,500  Level FlightAware UK
09:23AM 48.3473 -6.0109 260° West 458 527 35,500  Level FlightAware UK
09:23AM 48.3409 -6.0676 260° West 458 527 35,500  Level FlightAware UK
09:23AM 48.3344 -6.1241 260° West 458 527 35,500  Level FlightAware UK
09:23AM 48.3279 -6.1808 260° West 458 527 35,500  Level FlightAware UK
09:24AM 48.3213 -6.2374 260° West 458 527 35,500  Level FlightAware UK
09:24AM 48.3148 -6.2942 260° West 460 529 35,500  Level FlightAware UK
09:24AM 48.3081 -6.3510 260° West 460 529 35,500  Level FlightAware UK
09:25AM 48.3014 -6.4078 260° West 460 529 35,500  Level FlightAware UK
09:25AM 48.2947 -6.4647 260° West 460 529 35,500  Level FlightAware UK
09:25AM 48.2879 -6.5214 260° West 462 532 35,500  Level FlightAware UK
09:26AM 48.2813 -6.5782 260° West 462 532 35,500  Level FlightAware UK
09:26AM 48.2747 -6.6348 260° West 462 532 35,500  Level FlightAware UK
09:26AM 48.2677 -6.6911 260° West 460 529 35,500  Level FlightAware UK
09:26AM 48.2609 -6.7473 260° West 460 529 35,500  Level FlightAware UK
09:27AM 48.2541 -6.8033 260° West 458 527 35,500  Level FlightAware UK
09:27AM 48.2472 -6.8593 260° West 456 525 35,500  Level FlightAware UK
09:27AM 48.2404 -6.9145 260° West 456 525 35,500  Level FlightAware UK
09:28AM 48.2336 -6.9701 260° West 456 525 35,500  Level FlightAware UK
09:28AM 48.2267 -7.0258 260° West 456 525 35,500  Level FlightAware UK
09:28AM 48.2199 -7.0816 260° West 456 525 35,500  Level FlightAware UK
09:29AM 48.2131 -7.1375 260° West 458 527 35,500  Level FlightAware UK
09:29AM 48.2061 -7.1934 259° West 460 529 35,500  Level FlightAware UK
09:29AM 48.1991 -7.2494 259° West 460 529 35,500  Level FlightAware UK
09:29AM 48.1920 -7.3054 259° West 462 532 35,500  Level FlightAware UK
09:30AM 48.1849 -7.3613 259° West 462 532 35,500  Level FlightAware UK
09:30AM 48.1778 -7.4172 259° West 462 532 35,500  Level FlightAware UK
09:30AM 48.1706 -7.4730 259° West 462 532 35,500  Level FlightAware UK
09:31AM 48.1634 -7.5286 259° West 460 529 35,500  Level FlightAware UK
09:31AM 48.1563 -7.5841 259° West 460 529 35,500  Level FlightAware UK
09:31AM 48.1493 -7.6394 259° West 462 532 35,500  Level FlightAware UK
09:32AM 48.1420 -7.6945 259° West 460 529 35,500  Level FlightAware UK
09:32AM 48.1348 -7.7495 259° West 458 527 35,500  Level FlightAware UK
09:32AM 48.1276 -7.8045 259° West 458 527 35,500  Level FlightAware UK
09:32AM 48.1205 -7.8592 259° West 460 529 35,500  Level FlightAware UK
09:33AM 48.1133 -7.9140 259° West 460 529 35,500  Level FlightAware UK
09:33AM 48.1061 -7.9682 259° West 460 529 35,500  Level FlightAware UK
09:33AM 48.0989 -8.0231 259° West 458 527 35,500  Level FlightAware UK
09:34AM 48.0917 -8.0779 259° West 462 532 35,500  Level FlightAware UK
09:34AM 48.0844 -8.1328 259° West 460 529 35,500  Level FlightAware UK
09:34AM 48.0770 -8.1877 259° West 460 529 35,500  Level FlightAware UK
09:35AM 48.0696 -8.2425 259° West 462 532 35,500  Level FlightAware UK
09:35AM 48.0621 -8.2972 258° West 460 529 35,500  Level FlightAware UK
09:35AM 48.0547 -8.3519 259° West 1 1 35,500  Level FlightAware UK
09:37AM 48.0210 -8.5984 259° West  Level FlightAware Approximate
09:44AM 47.9517 -9.8574 267° West  Level FlightAware Approximate
09:45AM 47.9429 -10.0363 266° West  Level FlightAware Approximate
09:46AM 47.9338 -10.2151 266° West  Level FlightAware Approximate
09:47AM 47.9244 -10.3939 266° West  Level FlightAware Approximate
09:48AM 47.9148 -10.5726 265° West  Level FlightAware Approximate
09:49AM 47.9048 -10.7512 265° West  Level FlightAware Approximate
09:50AM 47.8946 -10.9298 265° West  Level FlightAware Approximate
09:51AM 47.8842 -11.1083 265° West  Level FlightAware Approximate
09:52AM 47.8734 -11.2867 265° West  Level FlightAware Approximate
09:53AM 47.8624 -11.4651 265° West  Level FlightAware Approximate
09:54AM 47.8511 -11.6433 265° West  Level FlightAware Approximate
09:55AM 47.8395 -11.8216 265° West  Level FlightAware Approximate
09:56AM 47.8276 -11.9997 264° West  Level FlightAware Approximate
09:57AM 47.8155 -12.1777 264° West  Level FlightAware Approximate
09:58AM 47.8031 -12.3556 264° West  Level FlightAware Approximate
09:59AM 47.7904 -12.5335 264° West  Level FlightAware Approximate
10:00AM 47.7774 -12.7113 264° West  Level FlightAware Approximate
10:01AM 47.7642 -12.8890 264° West  Level FlightAware Approximate
10:02AM 47.7507 -13.0666 264° West  Level FlightAware Approximate
10:03AM 47.7369 -13.2441 263° West  Level FlightAware Approximate
10:04AM 47.7229 -13.4215 263° West  Level FlightAware Approximate
10:05AM 47.7085 -13.5988 263° West  Level FlightAware Approximate
10:06AM 47.6939 -13.7760 263° West  Level FlightAware Approximate
10:07AM 47.6791 -13.9531 263° West  Level FlightAware Approximate
10:08AM 47.6639 -14.1301 263° West  Level FlightAware Approximate
10:09AM 47.6485 -14.3070 263° West  Level FlightAware Approximate
10:10AM 47.6328 -14.4838 263° West  Level FlightAware Approximate
10:11AM 47.6169 -14.6605 262° West  Level FlightAware Approximate
10:12AM 47.6006 -14.8371 262° West  Level FlightAware Approximate
10:13AM 47.5841 -15.0136 262° West  Level FlightAware Approximate
10:14AM 47.5673 -15.1899 262° West  Level FlightAware Approximate
10:15AM 47.5503 -15.3662 262° West  Level FlightAware Approximate
10:16AM 47.5330 -15.5423 262° West  Level FlightAware Approximate
10:17AM 47.5154 -15.7183 262° West  Level FlightAware Approximate
10:18AM 47.4976 -15.8942 262° West  Level FlightAware Approximate
10:19AM 47.4795 -16.0700 261° West  Level FlightAware Approximate
10:20AM 47.4611 -16.2457 261° West  Level FlightAware Approximate
10:21AM 47.4424 -16.4212 261° West  Level FlightAware Approximate
10:22AM 47.4235 -16.5966 261° West  Level FlightAware Approximate
10:23AM 47.4043 -16.7719 261° West  Level FlightAware Approximate
10:24AM 47.3848 -16.9470 261° West  Level FlightAware Approximate
10:25AM 47.3651 -17.1221 261° West  Level FlightAware Approximate
10:26AM 47.3451 -17.2969 260° West  Level FlightAware Approximate
10:27AM 47.3248 -17.4717 260° West  Level FlightAware Approximate
10:28AM 47.3043 -17.6463 260° West  Level FlightAware Approximate
10:29AM 47.2835 -17.8208 260° West  Level FlightAware Approximate
10:30AM 47.2625 -17.9951 260° West  Level FlightAware Approximate
10:31AM 47.2411 -18.1694 260° West  Level FlightAware Approximate
10:32AM 47.2196 -18.3434 260° West  Level FlightAware Approximate
10:33AM 47.1977 -18.5173 260° West  Level FlightAware Approximate
10:34AM 47.1756 -18.6911 259° West  Level FlightAware Approximate
10:35AM 47.1532 -18.8647 259° West  Level FlightAware Approximate
10:36AM 47.1306 -19.0382 259° West  Level FlightAware Approximate
10:37AM 47.1077 -19.2116 259° West  Level FlightAware Approximate
10:38AM 47.0845 -19.3848 259° West  Level FlightAware Approximate
10:39AM 47.0611 -19.5578 259° West  Level FlightAware Approximate
10:40AM 47.0374 -19.7307 259° West  Level FlightAware Approximate
10:41AM 47.0135 -19.9034 259° West  Level FlightAware Approximate
10:42AM 46.9881 -20.0756 257° West  Level FlightAware Approximate
10:43AM 46.9608 -20.2471 257° West  Level FlightAware Approximate
10:43AM 47.0000 -20.0000 258° West 448 516 37,000  Level ETMS Enhanced Traffic Management System
10:44AM 46.9333 -20.4184 257° West  Level FlightAware Approximate
10:45AM 46.9055 -20.5895 257° West  Level FlightAware Approximate
10:46AM 46.8774 -20.7605 257° West  Level FlightAware Approximate
10:47AM 46.8491 -20.9313 256° West  Level FlightAware Approximate
10:48AM 46.8205 -21.1019 256° West  Level FlightAware Approximate
10:49AM 46.8058 -21.2438 257° West 448 516 37,000  Level FlightAware Transoceanic
10:50AM 46.7769 -21.4208 257° West 448 516 37,000  Level FlightAware Transoceanic
10:51AM 46.7478 -21.5975 256° West 448 516 37,000  Level FlightAware Transoceanic
10:52AM 46.7184 -21.7741 256° West 448 516 37,000  Level FlightAware Transoceanic
10:53AM 46.6887 -21.9505 256° West 448 516 37,000  Level FlightAware Transoceanic
10:54AM 46.6588 -22.1266 256° West 448 516 37,000  Level FlightAware Transoceanic
10:55AM 46.6286 -22.3026 256° West 448 516 37,000  Level FlightAware Transoceanic
10:56AM 46.5981 -22.4784 256° West 448 516 37,000  Level FlightAware Transoceanic
10:57AM 46.5674 -22.6540 256° West 448 516 37,000  Level FlightAware Transoceanic
10:58AM 46.5364 -22.8294 256° West 448 516 37,000  Level FlightAware Transoceanic
10:59AM 46.5051 -23.0045 255° West 448 516 37,000  Level FlightAware Transoceanic
11:00AM 46.4735 -23.1795 255° West 448 516 37,000  Level FlightAware Transoceanic
11:01AM 46.4417 -23.3543 255° West 448 516 37,000  Level FlightAware Transoceanic
11:02AM 46.4097 -23.5289 255° West 448 516 37,000  Level FlightAware Transoceanic
11:03AM 46.3773 -23.7032 255° West 448 516 37,000  Level FlightAware Transoceanic
11:04AM 46.3447 -23.8774 255° West 448 516 37,000  Level FlightAware Transoceanic
11:05AM 46.3119 -24.0513 255° West 448 516 37,000  Level FlightAware Transoceanic
11:06AM 46.2787 -24.2251 255° West 448 516 37,000  Level FlightAware Transoceanic
11:07AM 46.2453 -24.3986 254° West 448 516 37,000  Level FlightAware Transoceanic
11:08AM 46.2117 -24.5719 254° West 448 516 37,000  Level FlightAware Transoceanic
11:09AM 46.1777 -24.7450 254° West 448 516 37,000  Level FlightAware Transoceanic
11:10AM 46.1436 -24.9179 254° West 448 516 37,000  Level FlightAware Transoceanic
11:11AM 46.1091 -25.0906 254° West 448 516 37,000  Level FlightAware Transoceanic
11:12AM 46.0744 -25.2631 254° West 448 516 37,000  Level FlightAware Transoceanic
11:13AM 46.0395 -25.4353 254° West 448 516 37,000  Level FlightAware Transoceanic
11:14AM 46.0042 -25.6073 254° West 448 516 37,000  Level FlightAware Transoceanic
11:15AM 45.9688 -25.7791 253° West 448 516 37,000  Level FlightAware Transoceanic
11:16AM 45.9330 -25.9507 253° West 448 516 37,000  Level FlightAware Transoceanic
11:17AM 45.8970 -26.1221 253° West 448 516 37,000  Level FlightAware Transoceanic
11:18AM 45.8608 -26.2932 253° West 448 516 37,000  Level FlightAware Transoceanic
11:19AM 45.8243 -26.4641 253° West 448 516 37,000  Level FlightAware Transoceanic
11:20AM 45.7875 -26.6348 253° West 448 516 37,000  Level FlightAware Transoceanic
11:21AM 45.7505 -26.8053 253° West 448 516 37,000  Level FlightAware Transoceanic
11:22AM 45.7132 -26.9755 253° West 448 516 37,000  Level FlightAware Transoceanic
11:23AM 45.6757 -27.1455 252° West 448 516 37,000  Level FlightAware Transoceanic
11:24AM 45.6380 -27.3153 252° West 448 516 37,000  Level FlightAware Transoceanic
11:25AM 45.5999 -27.4848 252° West 448 516 37,000  Level FlightAware Transoceanic
11:26AM 45.5617 -27.6542 252° West 448 516 37,000  Level FlightAware Transoceanic
11:27AM 45.5232 -27.8233 252° West 448 516 37,000  Level FlightAware Transoceanic
11:28AM 45.4844 -27.9921 252° West 448 516 37,000  Level FlightAware Transoceanic
11:29AM 45.4454 -28.1607 252° West 448 516 37,000  Level FlightAware Transoceanic
11:30AM 45.4061 -28.3291 252° West 448 516 37,000  Level FlightAware Transoceanic
11:31AM 45.3666 -28.4973 251° West 448 516 37,000  Level FlightAware Transoceanic
11:32AM 45.3269 -28.6652 251° West 448 516 37,000  Level FlightAware Transoceanic
11:33AM 45.2868 -28.8329 251° West 448 516 37,000  Level FlightAware Transoceanic
11:34AM 45.2466 -29.0003 251° West 448 516 37,000  Level FlightAware Transoceanic
11:35AM 45.2061 -29.1675 251° West 448 516 37,000  Level FlightAware Transoceanic
11:36AM 45.1654 -29.3345 251° West 448 516 37,000  Level FlightAware Transoceanic
11:37AM 45.1244 -29.5012 251° West 448 516 37,000  Level FlightAware Transoceanic
11:38AM 45.0832 -29.6677 251° West 448 516 37,000  Level FlightAware Transoceanic
11:39AM 45.0417 -29.8340 250° West 448 516 37,000  Level FlightAware Transoceanic
11:40AM 45.0015 -29.9942 250° West  Level FlightAware Approximate
11:41AM 44.9610 -30.1541 250° West  Level FlightAware Approximate
11:42AM 44.9758 -30.1537 257° West  Level FlightAware Approximate
11:43AM 44.9494 -30.3194 257° West  Level FlightAware Approximate
11:44AM 44.9228 -30.4849 257° West  Level FlightAware Approximate
11:45AM 44.8960 -30.6503 257° West  Level FlightAware Approximate
11:46AM 44.8689 -30.8155 257° West  Level FlightAware Approximate
11:47AM 44.8416 -30.9806 257° West  Level FlightAware Approximate
11:48AM 44.8140 -31.1455 257° West  Level FlightAware Approximate
11:49AM 44.7862 -31.3102 257° West  Level FlightAware Approximate
11:50AM 44.7582 -31.4748 257° West  Level FlightAware Approximate
11:51AM 44.7299 -31.6392 256° West  Level FlightAware Approximate
11:52AM 44.7014 -31.8035 256° West  Level FlightAware Approximate
11:53AM 44.6727 -31.9676 256° West  Level FlightAware Approximate
11:54AM 44.6437 -32.1315 256° West  Level FlightAware Approximate
11:55AM 44.6146 -32.2953 256° West  Level FlightAware Approximate
11:56AM 44.5862 -32.4593 256° West  Level FlightAware Approximate
11:57AM 44.5575 -32.6231 256° West  Level FlightAware Approximate
11:58AM 44.5287 -32.7867 256° West  Level FlightAware Approximate
11:59AM 44.4996 -32.9502 256° West  Level FlightAware Approximate
12:00PM 44.4702 -33.1135 256° West  Level FlightAware Approximate
12:01PM 44.4407 -33.2767 256° West  Level FlightAware Approximate
12:02PM 44.4109 -33.4397 256° West  Level FlightAware Approximate
12:03PM 44.3808 -33.6025 256° West  Level FlightAware Approximate
12:04PM 44.3506 -33.7651 255° West  Level FlightAware Approximate
12:05PM 44.3200 -33.9276 255° West  Level FlightAware Approximate
12:06PM 44.2893 -34.0899 255° West  Level FlightAware Approximate
12:07PM 44.2584 -34.2520 255° West  Level FlightAware Approximate
12:08PM 44.2272 -34.4140 255° West  Level FlightAware Approximate
12:09PM 44.1958 -34.5758 255° West  Level FlightAware Approximate
12:10PM 44.1641 -34.7374 255° West  Level FlightAware Approximate
12:11PM 44.1323 -34.8989 255° West  Level FlightAware Approximate
12:12PM 44.1002 -35.0602 255° West  Level FlightAware Approximate
12:13PM 44.0678 -35.2213 254° West  Level FlightAware Approximate
12:14PM 44.0353 -35.3822 254° West  Level FlightAware Approximate
12:15PM 44.0025 -35.5430 254° West  Level FlightAware Approximate
12:16PM 43.9695 -35.7035 254° West  Level FlightAware Approximate
12:17PM 43.9363 -35.8639 254° West  Level FlightAware Approximate
12:18PM 43.9028 -36.0241 254° West  Level FlightAware Approximate
12:19PM 43.8691 -36.1842 254° West  Level FlightAware Approximate
12:20PM 43.8353 -36.3440 254° West  Level FlightAware Approximate
12:21PM 43.8011 -36.5037 254° West  Level FlightAware Approximate
12:22PM 43.7668 -36.6632 253° West  Level FlightAware Approximate
12:23PM 43.7322 -36.8225 253° West  Level FlightAware Approximate
12:24PM 43.6974 -36.9816 253° West  Level FlightAware Approximate
12:25PM 43.6624 -37.1405 253° West  Level FlightAware Approximate
12:26PM 43.6272 -37.2993 253° West  Level FlightAware Approximate
12:27PM 43.5918 -37.4578 253° West  Level FlightAware Approximate
12:28PM 43.5561 -37.6162 253° West  Level FlightAware Approximate
12:29PM 43.5202 -37.7744 253° West  Level FlightAware Approximate
12:30PM 43.4841 -37.9324 253° West  Level FlightAware Approximate
12:31PM 43.4478 -38.0902 252° West  Level FlightAware Approximate
12:32PM 43.4113 -38.2478 252° West  Level FlightAware Approximate
12:33PM 43.3745 -38.4052 252° West  Level FlightAware Approximate
12:34PM 43.3376 -38.5625 252° West  Level FlightAware Approximate
12:35PM 43.3004 -38.7195 252° West  Level FlightAware Approximate
12:36PM 43.2630 -38.8764 252° West  Level FlightAware Approximate
12:37PM 43.2258 -39.0332 253° West  Level FlightAware Approximate
12:38PM 43.1897 -39.1904 253° West  Level FlightAware Approximate
12:38PM 43.0000 -40.0000 258° West 489 563 37,000  Level New York Oceanic (ODAPS)
12:39PM 43.1534 -39.3475 252° West  Level FlightAware Approximate
12:40PM 43.1170 -39.5044 252° West  Level FlightAware Approximate
12:41PM 43.0803 -39.6611 252° West  Level FlightAware Approximate
12:42PM 43.0434 -39.8176 252° West  Level FlightAware Approximate
12:43PM 43.0062 -39.9739 252° West  Level FlightAware Approximate
12:44PM 42.8311 -41.0811 258° West 489 563 37,000  Level FlightAware Transoceanic
12:44PM 42.8333 -41.1000 258° West 484 557 37,000  Level New York Oceanic (ODAPS)
12:45PM 42.8019 -41.2607 257° West 489 563 37,000  Level FlightAware Transoceanic
12:46PM 42.7725 -41.4401 257° West 489 563 37,000  Level FlightAware Transoceanic
12:47PM 42.7428 -41.6193 257° West 489 563 37,000  Level FlightAware Transoceanic
12:48PM 42.7129 -41.7984 257° West 489 563 37,000  Level FlightAware Transoceanic
12:49PM 42.6826 -41.9773 257° West 489 563 37,000  Level FlightAware Transoceanic
12:50PM 42.6539 -42.1727 257° West 484 557 37,000  Level FlightAware Transoceanic
12:51PM 42.6230 -42.3509 257° West 484 557 37,000  Level FlightAware Transoceanic
12:52PM 42.5919 -42.5289 257° West 484 557 37,000  Level FlightAware Transoceanic
12:53PM 42.5604 -42.7067 256° West 484 557 37,000  Level FlightAware Transoceanic
12:54PM 42.5287 -42.8844 256° West 484 557 37,000  Level FlightAware Transoceanic
12:55PM 42.4967 -43.0619 256° West 484 557 37,000  Level FlightAware Transoceanic
12:56PM 42.4645 -43.2391 256° West 484 557 37,000  Level FlightAware Transoceanic
12:57PM 42.4320 -43.4162 256° West 484 557 37,000  Level FlightAware Transoceanic
12:58PM 42.3992 -43.5932 256° West 484 557 37,000  Level FlightAware Transoceanic
12:58PM 42.4000 -43.5667 256° West 490 564 37,000  Level New York Oceanic (ODAPS)
12:59PM 42.3661 -43.7699 256° West 484 557 37,000  Level FlightAware Transoceanic
01:00PM 42.3328 -43.9464 256° West 484 557 37,000  Level FlightAware Transoceanic
01:01PM 42.2992 -44.1228 255° West 484 557 37,000  Level FlightAware Transoceanic
01:02PM 42.2653 -44.2989 255° West 484 557 37,000  Level FlightAware Transoceanic
01:03PM 42.2311 -44.4749 255° West 484 557 37,000  Level FlightAware Transoceanic
01:04PM 42.1976 -44.6286 255° West 490 564 37,000  Level FlightAware Transoceanic
01:05PM 42.1629 -44.8049 255° West 490 564 37,000  Level FlightAware Transoceanic
01:06PM 42.1280 -44.9810 255° West 490 564 37,000  Level FlightAware Transoceanic
01:07PM 42.0928 -45.1570 255° West 490 564 37,000  Level FlightAware Transoceanic
01:08PM 42.0573 -45.3327 255° West 490 564 37,000  Level FlightAware Transoceanic
01:09PM 42.0215 -45.5082 255° West 490 564 37,000  Level FlightAware Transoceanic
01:10PM 41.9855 -45.6836 254° West 490 564 37,000  Level FlightAware Transoceanic
01:11PM 41.9492 -45.8587 254° West 490 564 37,000  Level FlightAware Transoceanic
01:12PM 41.9126 -46.0337 254° West 490 564 37,000  Level FlightAware Transoceanic
01:12PM 41.9167 -46.0167 254° West 490 564 37,000  Level New York Oceanic (ODAPS)
01:13PM 41.8758 -46.2084 254° West 490 564 37,000  Level FlightAware Transoceanic
01:14PM 41.8387 -46.3829 254° West 490 564 37,000  Level FlightAware Transoceanic
01:15PM 41.8014 -46.5573 254° West 490 564 37,000  Level FlightAware Transoceanic
01:16PM 41.7638 -46.7314 254° West 490 564 37,000  Level FlightAware Transoceanic
01:17PM 41.7259 -46.9053 254° West 490 564 37,000  Level FlightAware Transoceanic
01:18PM 41.6908 -47.0666 254° West 490 564 37,000  Level FlightAware Transoceanic
01:19PM 41.6523 -47.2408 253° West 490 564 37,000  Level FlightAware Transoceanic
01:20PM 41.6135 -47.4149 253° West 490 564 37,000  Level FlightAware Transoceanic
01:21PM 41.5744 -47.5887 253° West 490 564 37,000  Level FlightAware Transoceanic
01:22PM 41.5350 -47.7624 253° West 490 564 37,000  Level FlightAware Transoceanic
01:23PM 41.4954 -47.9358 253° West 490 564 37,000  Level FlightAware Transoceanic
01:24PM 41.4556 -48.1090 253° West 490 564 37,000  Level FlightAware Transoceanic
01:25PM 41.4154 -48.2820 253° West 490 564 37,000  Level FlightAware Transoceanic
01:26PM 41.3750 -48.4548 253° West 490 564 37,000  Level FlightAware Transoceanic
01:26PM 41.3667 -48.5000 253° West 500 575 37,000  Level New York Oceanic (ODAPS)
01:27PM 41.3344 -48.6273 253° West 490 564 37,000  Level FlightAware Transoceanic
01:28PM 41.2935 -48.7997 252° West 490 564 37,000  Level FlightAware Transoceanic
01:29PM 41.2523 -48.9718 252° West 490 564 37,000  Level FlightAware Transoceanic
01:30PM 41.2109 -49.1437 252° West 490 564 37,000  Level FlightAware Transoceanic
01:31PM 41.1692 -49.3154 252° West 490 564 37,000  Level FlightAware Transoceanic
01:32PM 41.0935 -49.6266 252° West 500 575 37,000  Level FlightAware Transoceanic
01:33PM 41.0469 -49.8134 252° West 500 575 37,000  Level FlightAware Transoceanic
01:34PM 41.0000 -50.0000 232° Southwest 500 575 37,000  Level FlightAware Transoceanic
01:34PM 41.0000 -50.0000 232° Southwest 463 533 37,000  Level New York Oceanic (ODAPS)
01:35PM 40.9181 -50.1372 232° Southwest 500 575 37,000  Level FlightAware Transoceanic
01:36PM 40.8360 -50.2741 232° Southwest 500 575 37,000  Level FlightAware Transoceanic
01:37PM 40.7538 -50.4106 231° Southwest 500 575 37,000  Level FlightAware Transoceanic
01:38PM 40.6714 -50.5468 231° Southwest 500 575 37,000  Level FlightAware Transoceanic
01:39PM 40.5888 -50.6827 231° Southwest 500 575 37,000  Level FlightAware Transoceanic
01:40PM 40.5061 -50.8182 231° Southwest 500 575 37,000  Level FlightAware Transoceanic
01:40PM 40.5167 -50.8167 231° Southwest 458 527 37,000  Level New York Oceanic (ODAPS)
01:41PM 40.4374 -50.9304 231° Southwest 463 533 37,000  Level FlightAware Transoceanic
01:42PM 40.3564 -51.0620 231° Southwest 463 533 37,000  Level FlightAware Transoceanic
01:43PM 40.2753 -51.1934 231° Southwest 463 533 37,000  Level FlightAware Transoceanic
01:44PM 40.1940 -51.3244 231° Southwest 463 533 37,000  Level FlightAware Transoceanic
01:45PM 40.1126 -51.4551 231° Southwest 463 533 37,000  Level FlightAware Transoceanic
01:46PM 40.0359 -51.5919 231° Southwest 458 527 37,000  Level FlightAware Transoceanic
01:47PM 39.9552 -51.7201 231° Southwest 458 527 37,000  Level FlightAware Transoceanic
01:48PM 39.8745 -51.8479 230° Southwest 458 527 37,000  Level FlightAware Transoceanic
01:49PM 39.7935 -51.9755 230° Southwest 458 527 37,000  Level FlightAware Transoceanic
01:50PM 39.7125 -52.1027 230° Southwest 458 527 37,000  Level FlightAware Transoceanic
01:51PM 39.6313 -52.2297 230° Southwest 458 527 37,000  Level FlightAware Transoceanic
01:52PM 39.5500 -52.3563 230° Southwest 458 527 37,000  Level FlightAware Transoceanic
01:53PM 39.4685 -52.4827 230° Southwest 458 527 37,000  Level FlightAware Transoceanic
01:53PM 39.2833 -52.7667 230° Southwest 454 522 37,000  Level New York Oceanic (ODAPS)
01:54PM 39.3869 -52.6087 230° Southwest 458 527 37,000  Level FlightAware Transoceanic
01:55PM 39.3052 -52.7345 230° Southwest 458 527 37,000  Level FlightAware Transoceanic
01:56PM 39.2233 -52.8600 230° Southwest 458 527 37,000  Level FlightAware Transoceanic
01:57PM 39.1413 -52.9851 230° Southwest 458 527 37,000  Level FlightAware Transoceanic
01:58PM 39.0592 -53.1100 230° Southwest 458 527 37,000  Level FlightAware Transoceanic
01:59PM 38.9769 -53.2346 230° Southwest 458 527 37,000  Level FlightAware Transoceanic
02:00PM 38.7920 -53.5116 229° Southwest 454 522 37,000  Level FlightAware Transoceanic
02:01PM 38.7097 -53.6347 229° Southwest 454 522 37,000  Level FlightAware Transoceanic
02:02PM 38.6272 -53.7576 229° Southwest 454 522 37,000  Level FlightAware Transoceanic
02:03PM 38.5446 -53.8802 229° Southwest 454 522 37,000  Level FlightAware Transoceanic
02:04PM 38.4619 -54.0025 229° Southwest 454 522 37,000  Level FlightAware Transoceanic
02:05PM 38.3790 -54.1245 229° Southwest 454 522 37,000  Level FlightAware Transoceanic
02:06PM 38.2961 -54.2462 229° Southwest 454 522 37,000  Level FlightAware Transoceanic
02:07PM 38.2129 -54.3677 229° Southwest 454 522 37,000  Level FlightAware Transoceanic
02:07PM 38.0667 -54.5667 229° Southwest 452 520 37,000  Level New York Oceanic (ODAPS)
02:08PM 38.1297 -54.4889 229° Southwest 454 522 37,000  Level FlightAware Transoceanic
02:09PM 38.0464 -54.6098 229° Southwest 454 522 37,000  Level FlightAware Transoceanic
02:10PM 37.9629 -54.7304 229° Southwest 454 522 37,000  Level FlightAware Transoceanic
02:11PM 37.8793 -54.8508 229° Southwest 454 522 37,000  Level FlightAware Transoceanic
02:12PM 37.7956 -54.9709 229° Southwest 454 522 37,000  Level FlightAware Transoceanic
02:13PM 37.7117 -55.0907 228° Southwest 454 522 37,000  Level FlightAware Transoceanic
02:14PM 37.4893 -55.3948 228° Southwest 452 520 37,000  Level FlightAware Transoceanic
02:15PM 37.4064 -55.5121 228° Southwest 452 520 37,000  Level FlightAware Transoceanic
02:16PM 37.3233 -55.6291 228° Southwest 452 520 37,000  Level FlightAware Transoceanic
02:17PM 37.2402 -55.7458 228° Southwest 452 520 37,000  Level FlightAware Transoceanic
02:18PM 37.1569 -55.8623 228° Southwest 452 520 37,000  Level FlightAware Transoceanic
02:19PM 37.0735 -55.9785 228° Southwest 452 520 37,000  Level FlightAware Transoceanic
02:20PM 36.9899 -56.0945 228° Southwest 452 520 37,000  Level FlightAware Transoceanic
02:21PM 36.9063 -56.2102 228° Southwest 452 520 37,000 600 Level FlightAware Transoceanic
02:21PM 36.8667 -56.2667 228° Southwest 450 518 38,000  Climbing New York Oceanic (ODAPS)
02:22PM 36.8226 -56.3256 228° Southwest 452 520 37,000 -780 Descending FlightAware Transoceanic
02:23PM 36.7387 -56.4409 228° Southwest 452 520 37,000  Level FlightAware Transoceanic
02:24PM 36.6548 -56.5558 228° Southwest 452 520 37,000  Level FlightAware Transoceanic
02:25PM 36.5707 -56.6705 228° Southwest 452 520 37,000  Level FlightAware Transoceanic
02:26PM 36.4865 -56.7850 227° Southwest 452 520 37,000  Level FlightAware Transoceanic
02:27PM 36.4022 -56.8992 227° Southwest 452 520 37,000 480 Level FlightAware Transoceanic
02:28PM 36.2860 -57.0573 227° Southwest 450 518 38,000 480 Climbing FlightAware Transoceanic
02:29PM 36.2027 -57.1693 227° Southwest 450 518 38,000  Level FlightAware Transoceanic
02:30PM 36.1192 -57.2811 227° Southwest 450 518 38,000  Level FlightAware Transoceanic
02:31PM 36.0356 -57.3926 227° Southwest 450 518 38,000  Level FlightAware Transoceanic
02:32PM 35.9519 -57.5038 227° Southwest 450 518 38,000  Level FlightAware Transoceanic
02:33PM 35.8681 -57.6149 227° Southwest 450 518 38,000  Level FlightAware Transoceanic
02:34PM 35.7842 -57.7257 227° Southwest 450 518 38,000  Level FlightAware Transoceanic
02:35PM 35.7003 -57.8363 227° Southwest 450 518 38,000  Level FlightAware Transoceanic
02:35PM 35.6833 -57.8500 227° Southwest 434 499 38,000  Level New York Oceanic (ODAPS)
02:36PM 35.6162 -57.9466 227° Southwest 450 518 38,000  Level FlightAware Transoceanic
02:37PM 35.5320 -58.0567 227° Southwest 450 518 38,000  Level FlightAware Transoceanic
02:38PM 35.4477 -58.1666 227° Southwest 450 518 38,000  Level FlightAware Transoceanic
02:39PM 35.3633 -58.2762 227° Southwest 450 518 38,000  Level FlightAware Transoceanic
02:40PM 35.2788 -58.3856 227° Southwest 450 518 38,000  Level FlightAware Transoceanic
02:41PM 35.1942 -58.4948 226° Southwest 450 518 38,000  Level FlightAware Transoceanic
02:42PM 35.0985 -58.6125 227° Southwest 434 499 38,000  Level FlightAware Transoceanic
02:43PM 35.0146 -58.7206 226° Southwest 434 499 38,000  Level FlightAware Transoceanic
02:44PM 34.9305 -58.8284 226° Southwest 434 499 38,000  Level FlightAware Transoceanic
02:45PM 34.8464 -58.9360 226° Southwest 434 499 38,000  Level FlightAware Transoceanic
02:46PM 34.7622 -59.0434 226° Southwest 434 499 38,000  Level FlightAware Transoceanic
02:47PM 34.6779 -59.1505 226° Southwest 434 499 38,000  Level FlightAware Transoceanic
02:48PM 34.5934 -59.2575 226° Southwest 434 499 38,000  Level FlightAware Transoceanic
02:49PM 34.5089 -59.3642 226° Southwest 434 499 38,000  Level FlightAware Transoceanic
02:49PM 34.5333 -59.3500 225° Southwest 417 480 38,000  Level New York Oceanic (ODAPS)
02:50PM 34.4244 -59.4707 226° Southwest 434 499 38,000  Level FlightAware Transoceanic
02:51PM 34.3397 -59.5770 226° Southwest 434 499 38,000  Level FlightAware Transoceanic
02:52PM 34.2549 -59.6830 226° Southwest 434 499 38,000  Level FlightAware Transoceanic
02:53PM 34.1700 -59.7889 226° Southwest 434 499 38,000  Level FlightAware Transoceanic
02:54PM 34.0850 -59.8946 226° Southwest 434 499 38,000  Level FlightAware Transoceanic
02:55PM 34.0764 -59.9076 225° Southwest 417 480 38,000  Level FlightAware Transoceanic
02:55PM 34.0000 -60.0000 217° Southwest 434 499 38,000  Level New York Oceanic (ODAPS)
02:56PM 34.0000 -60.0000 217° Southwest 417 480 38,000  Level FlightAware Transoceanic
02:57PM 33.8979 -60.0936 217° Southwest 417 480 38,000  Level FlightAware Transoceanic
02:58PM 33.7956 -60.1870 217° Southwest 417 480 38,000  Level FlightAware Transoceanic
02:59PM 33.6933 -60.2802 217° Southwest 417 480 38,000  Level FlightAware Transoceanic
03:00PM 33.5910 -60.3732 217° Southwest 417 480 38,000  Level FlightAware Transoceanic
03:01PM 33.4885 -60.4659 217° Southwest 417 480 38,000  Level FlightAware Transoceanic
03:02PM 33.3861 -60.5584 217° Southwest 434 499 38,000  Level FlightAware Transoceanic
03:03PM 33.2835 -60.6507 217° Southwest 434 499 38,000  Level FlightAware Transoceanic
03:03PM 33.2833 -60.6500 217° Southwest 430 495 38,000  Level New York Oceanic (ODAPS)
03:04PM 33.1809 -60.7428 217° Southwest 434 499 38,000  Level FlightAware Transoceanic
03:05PM 33.0782 -60.8347 217° Southwest 434 499 38,000  Level FlightAware Transoceanic
03:06PM 32.9754 -60.9263 217° Southwest 434 499 38,000  Level FlightAware Transoceanic
03:07PM 32.8725 -61.0178 217° Southwest 434 499 38,000  Level FlightAware Transoceanic
03:08PM 32.7696 -61.1090 217° Southwest 434 499 38,000  Level FlightAware Transoceanic
03:09PM 32.6667 -61.2000 229° Southwest 430 495 38,000  Level FlightAware Transoceanic
03:09PM 32.6667 -61.2000 229° Southwest 422 486 38,000  Level New York Oceanic (ODAPS)
03:10PM 32.5909 -61.3038 229° Southwest 430 495 38,000  Level FlightAware Transoceanic
03:11PM 32.5151 -61.4075 229° Southwest 430 495 38,000  Level FlightAware Transoceanic
03:12PM 32.4392 -61.5110 229° Southwest 430 495 38,000  Level FlightAware Transoceanic
03:13PM 32.3632 -61.6143 229° Southwest 430 495 38,000  Level FlightAware Transoceanic
03:14PM 32.2871 -61.7174 229° Southwest 430 495 38,000  Level FlightAware Transoceanic
03:15PM 32.2216 -61.8060 229° Southwest 422 486 38,000  Level FlightAware Transoceanic
03:16PM 32.1471 -61.9064 229° Southwest 422 486 38,000  Level FlightAware Transoceanic
03:16PM 32.1000 -61.9833 229° Southwest 413 475 38,000  Level New York Oceanic (ODAPS)
03:17PM 32.0726 -62.0067 229° Southwest 422 486 38,000  Level FlightAware Transoceanic
03:18PM 31.9980 -62.1068 229° Southwest 422 486 38,000  Level FlightAware Transoceanic
03:19PM 31.9233 -62.2067 229° Southwest 422 486 38,000  Level FlightAware Transoceanic
03:19PM 31.8667 -62.2833 229° Southwest 417 480 38,000  Level New York Oceanic (ODAPS)
03:20PM 31.8485 -62.3064 229° Southwest 422 486 38,000  Level FlightAware Transoceanic
03:21PM 31.7737 -62.4061 228° Southwest 422 486 38,000  Level FlightAware Transoceanic
03:22PM 31.6988 -62.5055 228° Southwest 422 486 38,000  Level FlightAware Transoceanic
03:23PM 31.6465 -62.5857 228° Southwest 413 475 38,000  Level FlightAware Transoceanic
03:24PM 31.5707 -62.6855 228° Southwest 413 475 38,000  Level FlightAware Transoceanic
03:25PM 31.4948 -62.7852 228° Southwest 413 475 38,000  Level FlightAware Transoceanic
03:26PM 31.4131 -62.8831 228° Southwest 417 480 38,000  Level FlightAware Transoceanic
03:27PM 31.3372 -62.9825 228° Southwest 417 480 38,000  Level FlightAware Transoceanic
03:28PM 31.2613 -63.0817 228° Southwest 417 480 38,000  Level FlightAware Transoceanic
03:29PM 31.1853 -63.1808 228° Southwest 417 480 38,000  Level FlightAware Transoceanic
03:30PM 31.1092 -63.2797 228° Southwest 417 480 38,000  Level FlightAware Transoceanic
03:30PM 31.0167 -63.4000 228° Southwest 409 471 38,000  Level New York Oceanic (ODAPS)
03:31PM 31.0330 -63.3784 228° Southwest 417 480 38,000  Level FlightAware Transoceanic
03:32PM 30.9568 -63.4770 228° Southwest 417 480 38,000  Level FlightAware Transoceanic
03:33PM 30.8805 -63.5755 228° Southwest 417 480 38,000  Level FlightAware Transoceanic
03:34PM 30.8041 -63.6738 228° Southwest 417 480 38,000  Level FlightAware Transoceanic
03:35PM 30.7276 -63.7719 228° Southwest 417 480 38,000  Level FlightAware Transoceanic
03:36PM 30.6511 -63.8699 228° Southwest 417 480 38,000  Level FlightAware Transoceanic
03:37PM 30.5627 -63.9829 228° Southwest 409 471 38,000  Level FlightAware Transoceanic
03:38PM 30.4868 -64.0795 228° Southwest 409 471 38,000  Level FlightAware Transoceanic
03:39PM 30.4108 -64.1760 228° Southwest 409 471 38,000  Level FlightAware Transoceanic
03:40PM 30.3347 -64.2723 228° Southwest 409 471 38,000  Level FlightAware Transoceanic
03:41PM 30.2586 -64.3685 227° Southwest 409 471 38,000  Level FlightAware Transoceanic
03:41PM 30.2167 -64.4167 228° Southwest 441 507 38,000  Level New York Oceanic (ODAPS)
03:42PM 30.1824 -64.4645 227° Southwest 409 471 38,000  Level FlightAware Transoceanic
03:42PM 30.1667 -64.5000 227° Southwest 408 470 38,000  Level New York Oceanic (ODAPS)
03:43PM 30.1061 -64.5604 227° Southwest 409 471 38,000  Level FlightAware Transoceanic
03:44PM 30.0298 -64.6561 227° Southwest 409 471 38,000  Level FlightAware Transoceanic
03:44PM 29.9667 -64.7500 227° Southwest 398 458 38,000  Level New York Oceanic (ODAPS)
03:45PM 29.9534 -64.7517 227° Southwest 409 471 38,000  Level FlightAware Transoceanic
03:46PM 29.8769 -64.8471 227° Southwest 409 471 38,000  Level FlightAware Transoceanic
03:47PM 29.7812 -64.9641 227° Southwest 441 507 38,000  Level FlightAware Transoceanic
03:48PM 29.7174 -65.0517 227° Southwest 408 470 38,000  Level FlightAware Transoceanic
03:49PM 29.6423 -65.1431 227° Southwest 408 470 38,000  Level FlightAware Transoceanic
03:50PM 29.5742 -65.2269 226° Southwest 398 458 38,000  Level FlightAware Transoceanic
03:51PM 29.4954 -65.3219 226° Southwest 398 458 38,000  Level FlightAware Transoceanic
03:51PM 29.4167 -65.4167 205° Southwest 424 488 38,000  Level New York Oceanic (ODAPS)
03:52PM 29.4167 -65.4167 205° Southwest 398 458 38,000  Level FlightAware Transoceanic
03:53PM 29.3097 -65.4750 205° Southwest 398 458 38,000  Level FlightAware Transoceanic
03:54PM 29.2027 -65.5332 205° Southwest 398 458 38,000  Level FlightAware Transoceanic
03:55PM 29.0958 -65.5912 205° Southwest 398 458 38,000  Level FlightAware Transoceanic
03:56PM 28.9887 -65.6492 205° Southwest 398 458 38,000  Level FlightAware Transoceanic
03:57PM 28.8817 -65.7070 205° Southwest 424 488 38,000  Level FlightAware Transoceanic
03:58PM 28.7746 -65.7648 205° Southwest 424 488 38,000  Level FlightAware Transoceanic
03:58PM 28.7000 -65.8167 205° Southwest 425 489 38,000  Level New York Oceanic (ODAPS)
03:59PM 28.6675 -65.8223 205° Southwest 424 488 38,000  Level FlightAware Transoceanic
04:00PM 28.5604 -65.8798 205° Southwest 424 488 38,000  Level FlightAware Transoceanic
04:01PM 28.4533 -65.9372 205° Southwest 424 488 38,000  Level FlightAware Transoceanic
04:02PM 28.3461 -65.9944 205° Southwest 424 488 38,000  Level FlightAware Transoceanic
04:03PM 28.2389 -66.0516 205° Southwest 424 488 38,000  Level FlightAware Transoceanic
04:04PM 28.0669 -66.1531 205° Southwest 425 489 38,000  Level FlightAware Transoceanic
04:05PM 27.9613 -66.2088 205° Southwest 425 489 38,000  Level FlightAware Transoceanic
04:06PM 27.8557 -66.2644 205° Southwest 425 489 38,000  Level FlightAware Transoceanic
04:07PM 27.7500 -66.3198 205° Southwest 425 489 38,000  Level FlightAware Transoceanic
04:08PM 27.6444 -66.3752 205° Southwest 425 489 38,000  Level FlightAware Transoceanic
04:09PM 27.5387 -66.4304 205° Southwest 425 489 38,000  Level FlightAware Transoceanic
04:10PM 27.4330 -66.4856 205° Southwest 425 489 38,000  Level FlightAware Transoceanic
04:11PM 27.3273 -66.5406 205° Southwest 425 489 38,000  Level FlightAware Transoceanic
04:12PM 27.2215 -66.5956 205° Southwest 425 489 38,000  Level FlightAware Transoceanic
04:12PM 27.2000 -66.6000 205° Southwest 421 484 38,000  Level New York Oceanic (ODAPS)
04:13PM 27.1157 -66.6504 205° Southwest 425 489 38,000  Level FlightAware Transoceanic
04:14PM 27.0100 -66.7051 205° Southwest 425 489 38,000  Level FlightAware Transoceanic
04:15PM 26.9041 -66.7598 205° Southwest 425 489 38,000  Level FlightAware Transoceanic
04:16PM 26.7983 -66.8143 205° Southwest 425 489 38,000  Level FlightAware Transoceanic
04:17PM 26.6924 -66.8687 205° Southwest 425 489 38,000  Level FlightAware Transoceanic
04:18PM 26.5866 -66.9230 205° Southwest 425 489 38,000  Level FlightAware Transoceanic
04:19PM 26.4640 -66.9806 205° Southwest 421 484 38,000  Level FlightAware Transoceanic
04:20PM 26.3588 -67.0346 205° Southwest 421 484 38,000  Level FlightAware Transoceanic
04:21PM 26.2535 -67.0884 205° Southwest 421 484 38,000  Level FlightAware Transoceanic
04:22PM 26.1483 -67.1422 205° Southwest 421 484 38,000  Level FlightAware Transoceanic
04:23PM 26.0430 -67.1959 205° Southwest 421 484 38,000  Level FlightAware Transoceanic
04:24PM 25.9377 -67.2495 205° Southwest 421 484 38,000  Level FlightAware Transoceanic
04:25PM 25.8324 -67.3030 205° Southwest 421 484 38,000  Level FlightAware Transoceanic
04:26PM 25.7270 -67.3564 205° Southwest 421 484 38,000  Level FlightAware Transoceanic
04:26PM 25.7500 -67.3500 204° Southwest 417 480 38,000  Level New York Oceanic (ODAPS)
04:27PM 25.6217 -67.4096 204° Southwest 421 484 38,000  Level FlightAware Transoceanic
04:28PM 25.5163 -67.4628 204° Southwest 421 484 38,000  Level FlightAware Transoceanic
04:29PM 25.4109 -67.5160 204° Southwest 421 484 38,000  Level FlightAware Transoceanic
04:30PM 25.3055 -67.5690 204° Southwest 421 484 38,000  Level FlightAware Transoceanic
04:31PM 25.2000 -67.6219 204° Southwest 421 484 38,000  Level FlightAware Transoceanic
04:32PM 25.1094 -67.6707 204° Southwest 417 480 38,000  Level FlightAware Transoceanic
04:33PM 25.0026 -67.7238 204° Southwest 417 480 38,000  Level FlightAware Transoceanic
04:34PM 24.8958 -67.7768 204° Southwest 417 480 38,000  Level FlightAware Transoceanic
04:35PM 24.7889 -67.8298 204° Southwest 417 480 38,000  Level FlightAware Transoceanic
04:36PM 24.6820 -67.8826 204° Southwest 417 480 38,000  Level FlightAware Transoceanic
04:37PM 24.5751 -67.9353 204° Southwest 417 480 38,000  Level FlightAware Transoceanic
04:38PM 24.4682 -67.9880 204° Southwest 417 480 38,000  Level FlightAware Transoceanic
04:39PM 24.3613 -68.0406 204° Southwest 417 480 38,000  Level FlightAware Transoceanic
04:40PM 24.2543 -68.0931 204° Southwest 417 480 38,000  Level FlightAware Transoceanic
04:40PM 24.2500 -68.0833 206° Southwest 433 498 38,000  Level New York Oceanic (ODAPS)
04:41PM 24.1473 -68.1455 204° Southwest 417 480 38,000  Level FlightAware Transoceanic
04:42PM 24.0403 -68.1978 204° Southwest 417 480 38,000  Level FlightAware Transoceanic
04:43PM 23.9333 -68.2500 222° Southwest 417 480 38,000  Level FlightAware Transoceanic
04:44PM 23.9299 -68.2385 234° Southwest  Level FlightAware Approximate
04:44PM 23.7872 -68.4322 231° Southwest 464 534 38,000  Level Miami Center
04:45PM 23.8584 -68.3397 231° Southwest  Level FlightAware Approximate
04:45PM 23.6972 -68.4992 214° Southwest 411 473 38,000  Level Miami Center
04:46PM 23.8015 -68.4167 231° Southwest  Level FlightAware Approximate
04:47PM 23.5844 -68.5457 201° Southwest  Level FlightAware Approximate
04:47PM 23.4731 -68.5931 201° Southwest 427 491 38,000  Level Miami Center
04:48PM 23.3656 -68.6475 205° Southwest 432 497 38,000  Level Miami Center
04:49PM 23.2581 -68.6972 203° Southwest 432 497 38,000  Level Miami Center
04:50PM 23.1439 -68.7450 201° Southwest 438 504 38,000  Level Miami Center
04:51PM 23.0361 -68.7969 204° Southwest 433 498 38,000  Level Miami Center
04:52PM 22.9303 -68.8442 202° Southwest 428 493 38,000  Level Miami Center
04:53PM 22.8203 -68.8936 203° Southwest 428 493 38,000  Level Miami Center
04:54PM 22.7103 -68.9431 203° Southwest 428 493 38,000  Level Miami Center
04:56PM 22.5915 -68.9740 199° South  Level FlightAware Approximate
04:56PM 22.4903 -69.0417 199° South 428 493 38,000  Level Miami Center
04:57PM 22.3783 -69.0931 203° Southwest 433 498 38,000  Level Miami Center
04:58PM 22.2661 -69.1400 201° Southwest 433 498 38,000  Level Miami Center
04:59PM 22.1581 -69.1889 203° Southwest 427 491 38,000  Level Miami Center
05:01PM 22.0392 -69.2125 190° South  Level FlightAware Approximate
05:01PM 21.9422 -69.2864 190° South 427 491 38,000  Level Miami Center
05:02PM 21.8278 -69.3331 201° Southwest 427 491 38,000  Level Miami Center
05:03PM 21.7197 -69.3836 203° Southwest 427 491 38,000  Level Miami Center
05:04PM 21.6117 -69.4342 204° Southwest 432 497 38,000  Level Miami Center
05:05PM 21.4953 -69.4808 200° South 432 497 38,000  Level Miami Center
05:06PM 21.3872 -69.5292 203° Southwest 432 497 38,000  Level Miami Center
05:07PM 21.2697 -69.5597 194° South 432 497 38,000 -1,200 Level Miami Center
05:08PM 21.1378 -69.5425 173° South 444 511 35,600 -13,020 Descending Miami Center
05:09PM 21.0081 -69.5319 176° South 463 533 12,000 -3,360 Descending Miami Center
05:10PM 20.8917 -69.5803 201° Southwest 453 521 28,900 7,320 Climbing Miami Center
05:11PM 20.7906 -69.6475 212° Southwest 437 503 26,700 -2,220 Descending Miami Center
05:12PM 20.6936 -69.7125 212° Southwest 425 489 24,500 -1,980 Descending Miami Center
05:13PM 20.6086 -69.7656 210° Southwest 412 474 22,800 -1,860 Descending Miami Center
05:14PM 20.5178 -69.8322 215° Southwest 405 466 20,800 -2,100 Descending Miami Center
05:15PM 20.4247 -69.8922 211° Southwest 399 459 18,600 -2,520 Descending Miami Center
05:16PM 20.3339 -69.9564 214° Southwest 399 459 15,800 -2,400 Descending Miami Center
05:17PM 20.2447 -70.0136 211° Southwest 394 453 13,800 -1,860 Descending Miami Center
05:18PM 20.1642 -70.0728 215° Southwest 380 437 12,100 -1,740 Descending Miami Center
05:20PM 20.0799 -70.1655 226° Southwest  Level FlightAware Approximate
05:27PM 19.7500 -70.5667 231° Southwest  Level FlightAware Approximate
05:28PM 19.7579 -70.5700 231° Southwest  Level Estimated
05:29PM 19.7579 -70.5700 231° Southwest  Level Estimated
05:30PM 19.7579 -70.5700 231° Southwest  Level Estimated
05:31PM 19.7579 -70.5700 231° Southwest  Level Estimated
05:32PM 19.7579 -70.5700 231° Southwest  Level Estimated
05:33PM 19.7579 -70.5700 231° Southwest  Level Estimated
05:34PM 19.7579 -70.5700 231° Southwest  Level Estimated
05:35PM 19.7579 -70.5700 231° Southwest  Level Estimated
05:36PM 19.7579 -70.5700 231° Southwest  Level Estimated
05:37PM 19.7579 -70.5700 231° Southwest  Level Estimated
05:38PM 19.7579 -70.5700 231° Southwest  Level Estimated
05:39PM 19.7579 -70.5700 231° Southwest  Level Estimated